EDMA/AGB METAR and TAF weather

Enter ICAO airport designator
Station Type Date Time Source
EDMA METAR 2019/06/24 23:20 UTC NOAA

EDMA 242320Z AUTO VRB01KT 9999 // NCD 19/15 Q1021


Station Type Date Time Source
EDMA Decoded METAR 2019/06/24 23:20 UTC NOAA

Augsburg, Germany (EDMA) 48-26N 010-56E 463M
Jun 24, 2019 - 07:20 PM EDT / 2019.06.24 2320 UTC
Wind: Variable at 1 MPH (1 KT):0
Visibility: greater than 7 mile(s):0
Temperature: 66 F (19 C)
Dew Point: 59 F (15 C)
Relative Humidity: 77%
Pressure (altimeter): 30.15 in. Hg (1021 hPa)
ob: EDMA 242320Z AUTO VRB01KT 9999 // NCD 19/15 Q1021
cycle: 23

Station Type Date Time Source
EDMA TAF 2010/02/22 13:50 UTC NOAA

METAR EDMA 221350Z 23006KT CAVOK 10/02 Q0996

Example: see airport list